Time;durP1;ratioP1;P1;durP2;ratioP2;P2;SDS_P1;SDS_P2;PMS_P1;PMS_P2;Temp;Humidity;BMP_temperature;BMP_pressure;BME280_temperature;BME280_humidity;BME280_pressure;Samples;Min_cycle;Max_cycle;Signal;HPM_P1;HPM_P2
2022/02/05 00:00:31;;;;;;;0.17;0.17;;;19.30;48.10;;;;;;6173166;28;20058;-73
2022/02/05 00:03:39;;;;;;;0.40;0.30;;;19.30;48.20;;;;;;6173074;28;20118;-73
2022/02/05 00:06:44;;;;;;;0.20;0.20;;;19.30;48.20;;;;;;6172774;28;20037;-73
2022/02/05 00:10:08;;;;;;;0.30;0.30;;;19.30;48.20;;;;;;6172920;28;20332;-72
2022/02/05 00:38:16;;;;;;;0.73;0.30;;;19.30;48.40;;;;;;6172954;28;20031;-73
2022/02/05 00:40:08;;;;;;;0.25;0.25;;;19.30;48.40;;;;;;6171896;28;20047;-73
2022/02/05 00:43:12;;;;;;;0.50;0.40;;;19.30;48.50;;;;;;6150065;28;20046;-73
2022/02/05 00:46:14;;;;;;;0.57;0.20;;;19.30;48.20;;;;;;6148401;29;20057;-73
2022/02/05 00:49:16;;;;;;;0.32;0.30;;;19.30;48.50;;;;;;6148209;29;20023;-72
2022/02/05 00:52:18;;;;;;;0.32;0.30;;;19.30;48.50;;;;;;6148035;29;20081;-72
2022/02/05 00:55:24;;;;;;;0.30;0.30;;;19.30;48.20;;;;;;6147400;29;20047;-73
2022/02/05 00:58:24;;;;;;;;;;;19.30;48.40;;;;;;6148008;29;20126;-73
2022/02/05 01:01:24;;;;;;;0.77;0.28;;;19.30;48.20;;;;;;6147832;28;19907;-73
2022/02/05 01:04:25;;;;;;;0.25;0.25;;;19.30;48.50;;;;;;6147828;29;20094;-73
2022/02/05 01:07:26;;;;;;;0.22;0.22;;;19.30;48.40;;;;;;6147772;29;20034;-73
2022/02/05 01:10:27;;;;;;;0.30;0.30;;;19.30;48.50;;;;;;6147480;29;20031;-73
2022/02/05 01:13:30;;;;;;;0.20;0.20;;;19.30;48.40;;;;;;6147764;29;20506;-73
2022/02/05 01:20:02;;;;;;;0.20;0.20;;;19.30;48.40;;;;;;6147758;29;20027;-72
2022/02/05 01:23:03;;;;;;;0.25;0.25;;;19.30;48.50;;;;;;6146906;29;20454;-72
2022/02/05 01:26:30;;;;;;;0.40;0.20;;;19.30;48.50;;;;;;6147275;29;20386;-73
2022/02/05 01:32:36;;;;;;;0.50;0.32;;;19.30;48.30;;;;;;6153306;28;20042;-73
2022/02/05 02:05:06;;;;;;;0.10;0.10;;;19.20;48.40;;;;;;6120974;29;20036;-72
2022/02/05 02:15:02;;;;;;;0.82;0.30;;;19.20;48.30;;;;;;6146561;29;20110;-73
2022/02/05 02:18:20;;;;;;;0.63;0.40;;;19.20;48.20;;;;;;6144832;29;20092;-74
2022/02/05 02:21:39;;;;;;;0.35;0.30;;;19.20;48.30;;;;;;6145952;29;20448;-72
2022/02/05 02:28:12;;;;;;;0.20;0.20;;;19.20;48.30;;;;;;6146354;29;20489;-72
2022/02/05 02:31:19;;;;;;;0.63;0.30;;;19.20;48.10;;;;;;6145793;29;20039;-72
2022/02/05 02:34:24;;;;;;;0.90;0.30;;;19.20;48.20;;;;;;6165657;28;20089;-72
2022/02/05 02:37:32;;;;;;;0.65;0.40;;;19.20;48.40;;;;;;6169975;28;20038;-72
2022/02/05 02:43:52;;;;;;;0.73;0.40;;;19.20;48.40;;;;;;6147366;28;20478;-72
2022/02/05 02:46:53;;;;;;;0.43;0.35;;;19.20;48.40;;;;;;6150498;29;20031;-71
2022/02/05 02:59:48;;;;;;;0.43;0.40;;;19.20;48.40;;;;;;6151337;29;20518;-73
2022/02/05 03:02:48;;;;;;;0.52;0.30;;;19.20;48.40;;;;;;6150602;29;20179;-71
2022/02/05 03:05:49;;;;;;;0.57;0.25;;;19.20;48.30;;;;;;6150250;29;20470;-73
2022/02/05 03:08:50;;;;;;;1.15;0.38;;;19.20;48.30;;;;;;6150343;29;20504;-72
2022/02/05 03:11:51;;;;;;;0.30;0.20;;;19.20;48.30;;;;;;6150277;29;20024;-73
2022/02/05 03:14:52;;;;;;;0.77;0.30;;;19.20;48.30;;;;;;6150442;29;20545;-73
2022/02/05 03:17:55;;;;;;;0.35;0.30;;;19.20;48.30;;;;;;6149941;29;20049;-73
2022/02/05 03:20:55;;;;;;;0.82;0.40;;;19.20;48.30;;;;;;6150417;29;20038;-71
2022/02/05 03:23:56;;;;;;;0.45;0.30;;;19.20;48.20;;;;;;6149570;29;20039;-71
2022/02/05 03:26:56;;;;;;;0.68;0.45;;;19.20;48.20;;;;;;6149924;29;20063;-73
2022/02/05 03:29:57;;;;;;;0.50;0.30;;;19.20;48.30;;;;;;6150065;29;20319;-73
2022/02/05 03:32:59;;;;;;;0.25;0.25;;;19.20;48.20;;;;;;6159594;28;20026;-73
2022/02/05 03:35:59;;;;;;;0.50;0.30;;;19.20;48.20;;;;;;6173286;28;20062;-71
2022/02/05 03:39:00;;;;;;;0.88;0.40;;;19.20;48.30;;;;;;6173604;28;20027;-72
2022/02/05 03:42:01;;;;;;;0.50;0.20;;;19.20;48.20;;;;;;6161722;28;20545;-73
2022/02/05 03:45:08;;;;;;;0.80;0.43;;;19.20;48.20;;;;;;6150011;29;20378;-72
2022/02/05 03:48:09;;;;;;;0.57;0.30;;;19.20;48.30;;;;;;6149760;29;20035;-73
2022/02/05 03:51:09;;;;;;;0.35;0.28;;;19.20;48.30;;;;;;6150502;28;20218;-74
2022/02/05 03:54:11;;;;;;;0.55;0.30;;;19.20;48.20;;;;;;6148741;28;20094;-72
2022/02/05 03:57:12;;;;;;;1.02;0.40;;;19.20;48.20;;;;;;6149474;29;20573;-72
2022/02/05 04:00:37;;;;;;;0.63;0.30;;;19.20;48.30;;;;;;6149753;29;20033;-72
2022/02/05 04:03:37;;;;;;;0.55;0.30;;;19.20;48.30;;;;;;6149251;29;20375;-72
2022/02/05 04:06:38;;;;;;;1.55;0.52;;;19.20;48.20;;;;;;6147791;29;20082;-72
2022/02/05 04:09:41;;;;;;;1.27;0.35;;;19.20;48.20;;;;;;6148662;29;20035;-73
2022/02/05 04:19:08;;;;;;;1.05;0.57;;;19.20;48.20;;;;;;6148847;29;20038;-73
2022/02/05 04:22:09;;;;;;;0.95;0.35;;;19.20;48.20;;;;;;6148397;28;20122;-73
2022/02/05 04:25:13;;;;;;;1.55;0.45;;;19.20;48.20;;;;;;6148729;28;20043;-73
2022/02/05 04:28:13;;;;;;;0.40;0.30;;;19.20;48.20;;;;;;6148608;28;20054;-70
2022/02/05 04:31:14;;;;;;;0.68;0.30;;;19.20;48.20;;;;;;6151596;28;20134;-73
2022/02/05 04:34:14;;;;;;;1.38;0.50;;;19.20;48.20;;;;;;6172577;28;20033;-73
2022/02/05 04:37:17;;;;;;;0.85;0.40;;;19.20;48.20;;;;;;6172250;28;20027;-73
2022/02/05 04:50:11;;;;;;;1.55;0.60;;;19.20;48.20;;;;;;6148329;29;20069;-72
2022/02/05 04:53:21;;;;;;;1.08;0.32;;;19.20;48.20;;;;;;6147556;29;20035;-73
2022/02/05 05:09:03;;;;;;;0.93;0.40;;;19.20;48.20;;;;;;6148143;29;20438;-73
2022/02/05 05:12:20;;;;;;;0.30;0.20;;;19.20;48.00;;;;;;6147419;29;20074;-72
2022/02/05 05:21:40;;;;;;;0.93;0.35;;;19.20;48.20;;;;;;6146868;29;20059;-73
2022/02/05 05:24:41;;;;;;;1.25;0.50;;;19.20;48.10;;;;;;6147344;29;20394;-72
2022/02/05 05:27:41;;;;;;;0.90;0.47;;;19.20;48.20;;;;;;6147268;29;20041;-73
2022/02/05 05:30:42;;;;;;;1.27;0.40;;;19.20;48.20;;;;;;6147413;29;20028;-73
2022/02/05 05:33:42;;;;;;;0.52;0.30;;;19.20;48.20;;;;;;6162089;28;20405;-73
2022/02/05 05:36:43;;;;;;;0.43;0.30;;;19.20;48.20;;;;;;6170745;28;20081;-74
2022/02/05 05:39:44;;;;;;;1.00;0.40;;;19.20;48.30;;;;;;6170794;28;20031;-72
2022/02/05 05:42:52;;;;;;;0.35;0.30;;;19.20;48.20;;;;;;6152873;28;20035;-71
2022/02/05 05:46:15;;;;;;;1.00;0.40;;;19.20;48.20;;;;;;6146562;29;20402;-73
2022/02/05 05:49:22;;;;;;;0.60;0.40;;;19.20;48.20;;;;;;6146966;29;20038;-73
2022/02/05 05:52:23;;;;;;;0.98;0.40;;;19.20;48.10;;;;;;6146921;29;20027;-71
2022/02/05 05:55:23;;;;;;;1.42;0.40;;;19.20;48.20;;;;;;6146470;29;20062;-70
2022/02/05 05:58:25;;;;;;;0.68;0.20;;;19.20;48.20;;;;;;6145057;29;20046;-70
2022/02/05 06:01:25;;;;;;;0.88;0.40;;;19.20;48.20;;;;;;6146768;28;20034;-72
2022/02/05 06:04:26;;;;;;;0.77;0.40;;;19.20;48.20;;;;;;6146513;28;20035;-72
2022/02/05 06:07:26;;;;;;;0.35;0.28;;;19.20;48.30;;;;;;6146871;28;20106;-72
2022/02/05 06:10:27;;;;;;;0.90;0.40;;;19.20;48.20;;;;;;6160974;28;20031;-72
2022/02/05 06:13:28;;;;;;;1.40;0.38;;;19.20;48.20;;;;;;6146594;28;20082;-70
2022/02/05 06:16:32;;;;;;;0.32;0.28;;;19.20;48.00;;;;;;6146147;28;20034;-71
2022/02/05 06:19:33;;;;;;;0.57;0.30;;;19.20;48.20;;;;;;6146441;28;20027;-72
2022/02/05 06:22:36;;;;;;;0.98;0.38;;;19.20;48.20;;;;;;6145998;28;20031;-72
2022/02/05 06:25:39;;;;;;;0.88;0.40;;;19.20;48.20;;;;;;6145973;28;20066;-72
2022/02/05 06:28:39;;;;;;;0.52;0.25;;;19.20;48.10;;;;;;6146259;28;20027;-72
2022/02/05 06:31:40;;;;;;;0.90;0.40;;;19.20;48.20;;;;;;6166899;28;20035;-73
2022/02/05 06:34:40;;;;;;;0.82;0.50;;;19.20;48.20;;;;;;6169478;28;20536;-73
2022/02/05 06:37:40;;;;;;;1.35;0.40;;;19.20;48.20;;;;;;6170138;28;20484;-73
2022/02/05 06:40:41;;;;;;;1.08;0.35;;;19.20;48.20;;;;;;6167938;28;20357;-73
2022/02/05 06:43:42;;;;;;;0.85;0.40;;;19.20;48.20;;;;;;6146245;29;20038;-72
2022/02/05 06:46:42;;;;;;;1.30;0.43;;;19.20;47.90;;;;;;6145564;29;20086;-73
2022/02/05 06:49:43;;;;;;;0.68;0.35;;;19.20;48.10;;;;;;6145982;29;20090;-71
2022/02/05 06:52:44;;;;;;;0.70;0.38;;;19.30;48.20;;;;;;6145343;29;20035;-72
2022/02/05 06:55:44;;;;;;;0.75;0.30;;;19.20;48.00;;;;;;6143522;29;20530;-73
2022/02/05 06:58:45;;;;;;;0.43;0.30;;;19.20;47.90;;;;;;6145716;29;20023;-73
2022/02/05 07:01:45;;;;;;;1.52;0.50;;;19.20;48.20;;;;;;6145515;29;20043;-73
2022/02/05 07:04:47;;;;;;;1.27;0.43;;;19.20;48.10;;;;;;6144896;29;20659;-73
2022/02/05 07:07:47;;;;;;;0.90;0.50;;;19.30;48.00;;;;;;6161258;28;20034;-72
2022/02/05 07:10:50;;;;;;;0.75;0.47;;;19.20;48.00;;;;;;6169370;28;20042;-74
2022/02/05 07:13:53;;;;;;;1.00;0.60;;;19.20;48.00;;;;;;6168328;28;20038;-73
2022/02/05 07:17:02;;;;;;;0.80;0.50;;;19.20;48.00;;;;;;6169070;28;20045;-71
2022/02/05 07:20:21;;;;;;;0.90;0.55;;;19.20;47.90;;;;;;6169529;28;20573;-73
2022/02/05 07:29:44;;;;;;;0.93;0.50;;;19.20;47.80;;;;;;6170608;28;20483;-72
2022/02/05 07:32:45;;;;;;;0.63;0.40;;;19.20;47.90;;;;;;6173415;28;20030;-72
2022/02/05 07:35:45;;;;;;;1.40;0.60;;;19.20;47.90;;;;;;6173587;28;20034;-72
2022/02/05 07:38:47;;;;;;;1.08;0.60;;;19.20;47.80;;;;;;6172263;28;20027;-72
2022/02/05 07:41:48;;;;;;;0.77;0.47;;;19.20;47.90;;;;;;6172785;28;20363;-73
2022/02/05 07:44:49;;;;;;;0.77;0.50;;;19.20;47.80;;;;;;6173580;28;20059;-73
2022/02/05 07:47:49;;;;;;;1.05;0.52;;;19.20;47.90;;;;;;6173532;28;20027;-73
2022/02/05 07:50:50;;;;;;;0.80;0.40;;;19.20;48.20;;;;;;6173157;28;20484;-72
2022/02/05 07:53:51;;;;;;;0.88;0.63;;;19.20;48.00;;;;;;6173217;28;20109;-70
2022/02/05 07:56:51;;;;;;;0.90;0.55;;;19.20;47.90;;;;;;6173325;28;20029;-71
2022/02/05 07:59:52;;;;;;;1.23;0.50;;;19.20;48.00;;;;;;6173310;28;20031;-72
2022/02/05 08:02:56;;;;;;;1.15;0.43;;;19.20;48.00;;;;;;6172904;28;20031;-73
2022/02/05 08:06:01;;;;;;;2.03;0.43;;;19.20;48.10;;;;;;6172896;28;20401;-72
2022/02/05 08:09:11;;;;;;;1.95;0.75;;;19.20;48.00;;;;;;6172862;28;20027;-73
2022/02/05 08:12:14;;;;;;;1.10;0.60;;;19.20;48.00;;;;;;6172981;28;20324;-72
2022/02/05 08:15:18;;;;;;;0.52;0.43;;;19.20;48.10;;;;;;6172494;28;20118;-72
2022/02/05 08:18:18;;;;;;;1.65;0.50;;;19.20;47.90;;;;;;6172571;28;20308;-72
2022/02/05 08:21:19;;;;;;;1.13;0.40;;;19.20;48.00;;;;;;6172409;28;20170;-72
2022/02/05 08:24:19;;;;;;;0.90;0.50;;;19.20;48.70;;;;;;6172571;28;20038;-72
2022/02/05 08:27:20;;;;;;;0.93;0.40;;;19.20;48.10;;;;;;6172463;28;20031;-71
2022/02/05 08:30:20;;;;;;;1.13;0.43;;;19.20;47.90;;;;;;6172175;28;20026;-73
2022/02/05 08:33:21;;;;;;;1.83;0.50;;;19.20;48.00;;;;;;6168836;28;20035;-73
2022/02/05 08:36:23;;;;;;;2.00;0.60;;;19.20;48.00;;;;;;6172115;28;20077;-73
2022/02/05 08:39:24;;;;;;;0.50;0.30;;;19.20;47.90;;;;;;6172083;28;20015;-72
2022/02/05 08:42:25;;;;;;;0.73;0.40;;;19.20;47.80;;;;;;6171237;28;20500;-73
2022/02/05 08:45:25;;;;;;;1.15;0.30;;;19.20;47.90;;;;;;6171933;28;20118;-71
2022/02/05 08:48:26;;;;;;;0.52;0.32;;;19.20;47.80;;;;;;6172510;28;20425;-71
2022/02/05 08:51:27;;;;;;;1.15;0.40;;;19.20;47.90;;;;;;6172387;28;20386;-70
2022/02/05 08:54:28;;;;;;;1.88;0.50;;;19.20;47.80;;;;;;6171950;28;20051;-70
2022/02/05 08:57:29;;;;;;;0.75;0.47;;;19.20;48.10;;;;;;6171831;28;20035;-71
2022/02/05 09:00:30;;;;;;;0.90;0.47;;;19.20;48.00;;;;;;6172167;28;20027;-72
2022/02/05 09:04:20;;;;;;;0.63;0.40;;;19.20;48.00;;;;;;6171491;28;20039;-72
2022/02/05 09:06:58;;;;;;;0.52;0.30;;;19.20;48.00;;;;;;6170680;28;20072;-73
2022/02/05 09:10:09;;;;;;;0.40;0.25;;;19.20;48.50;;;;;;6171303;28;20504;-73
2022/02/05 09:13:35;;;;;;;0.45;0.30;;;19.20;48.00;;;;;;6171481;28;20018;-72
2022/02/05 09:16:33;;;;;;;1.13;0.52;;;19.20;47.90;;;;;;6170953;28;20114;-71
2022/02/05 09:19:35;;;;;;;0.45;0.40;;;19.20;47.80;;;;;;6171679;28;20053;-72
2022/02/05 09:22:35;;;;;;;0.70;0.30;;;19.20;48.10;;;;;;6171454;28;20702;-71
2022/02/05 09:25:40;;;;;;;0.63;0.30;;;19.20;48.00;;;;;;6171214;28;20034;-72
2022/02/05 09:28:42;;;;;;;0.45;0.30;;;19.20;47.90;;;;;;6171505;28;20685;-71
2022/02/05 09:31:42;;;;;;;1.27;0.32;;;19.20;47.90;;;;;;6171474;28;20136;-70
2022/02/05 09:34:43;;;;;;;0.70;0.40;;;19.20;48.00;;;;;;6170713;28;20145;-73
2022/02/05 09:37:43;;;;;;;0.52;0.40;;;19.20;48.10;;;;;;6170697;28;20082;-73
2022/02/05 09:40:44;;;;;;;0.73;0.40;;;19.20;47.90;;;;;;6169381;28;20383;-72
2022/02/05 09:43:47;;;;;;;0.30;0.20;;;19.20;47.80;;;;;;6170400;28;20126;-73
2022/02/05 09:46:47;;;;;;;0.98;0.38;;;19.20;47.80;;;;;;6170539;28;20109;-71
2022/02/05 09:49:50;;;;;;;0.32;0.22;;;19.20;47.80;;;;;;6170755;28;20029;-72
2022/02/05 09:52:53;;;;;;;0.75;0.50;;;19.20;47.80;;;;;;6170104;28;20524;-73
2022/02/05 09:55:54;;;;;;;0.98;0.50;;;19.20;47.80;;;;;;6171228;28;20113;-73
2022/02/05 09:58:55;;;;;;;0.63;0.40;;;19.20;47.80;;;;;;6170444;28;20038;-73
2022/02/05 10:02:19;;;;;;;1.38;0.45;;;19.30;48.00;;;;;;6170075;28;20038;-73
2022/02/05 10:05:22;;;;;;;2.08;0.40;;;19.20;47.90;;;;;;6162719;28;20058;-71
2022/02/05 10:08:23;;;;;;;0.77;0.40;;;19.30;47.90;;;;;;6168470;28;20042;-71
2022/02/05 10:11:25;;;;;;;0.43;0.35;;;19.30;47.90;;;;;;6170294;28;20050;-73
2022/02/05 10:14:32;;;;;;;1.88;0.55;;;19.30;48.00;;;;;;6168683;28;20027;-72
2022/02/05 10:17:40;;;;;;;0.30;0.30;;;19.30;48.00;;;;;;6170321;28;20030;-72
2022/02/05 10:20:41;;;;;;;0.98;0.43;;;19.20;47.80;;;;;;6168332;28;20519;-72
2022/02/05 10:24:05;;;;;;;1.23;0.50;;;19.30;48.00;;;;;;6146466;28;20170;-72
2022/02/05 10:27:06;;;;;;;0.98;0.45;;;19.30;47.90;;;;;;6145905;28;20074;-73
2022/02/05 10:30:12;;;;;;;0.88;0.50;;;19.30;47.90;;;;;;6145874;29;20031;-73
2022/02/05 10:33:22;;;;;;;0.40;0.30;;;19.20;47.90;;;;;;6157401;28;20415;-72
2022/02/05 10:36:29;;;;;;;0.93;0.50;;;19.30;48.00;;;;;;6169911;28;20034;-73
2022/02/05 10:39:41;;;;;;;0.70;0.40;;;19.30;48.10;;;;;;6169707;28;20492;-73
2022/02/05 10:46:05;;;;;;;0.80;0.50;;;19.30;48.00;;;;;;6145791;29;20031;-73
2022/02/05 10:49:05;;;;;;;0.68;0.40;;;19.30;48.00;;;;;;6145620;29;20104;-73
2022/02/05 10:52:06;;;;;;;0.43;0.32;;;19.30;48.00;;;;;;6143430;28;20401;-73
2022/02/05 10:55:19;;;;;;;0.60;0.40;;;19.30;47.90;;;;;;6164535;28;20055;-73
2022/02/05 10:58:38;;;;;;;0.40;0.40;;;19.30;47.90;;;;;;6168205;28;20030;-73
2022/02/05 11:05:19;;;;;;;3.35;0.60;;;19.30;48.20;;;;;;6170596;28;20039;-73
2022/02/05 11:08:20;;;;;;;2.13;0.50;;;19.30;48.00;;;;;;6173415;28;20026;-72
2022/02/05 11:11:38;;;;;;;4.28;0.40;;;19.30;48.10;;;;;;6171050;28;20106;-72
2022/02/05 11:18:08;;;;;;;0.80;0.32;;;19.30;48.20;;;;;;6174446;28;20496;-69
2022/02/05 11:21:08;;;;;;;1.38;0.40;;;19.30;48.70;;;;;;6173687;28;20026;-72
2022/02/05 11:24:10;;;;;;;2.47;0.50;;;19.30;48.20;;;;;;6171860;28;20039;-72
2022/02/05 11:27:12;;;;;;;1.02;0.40;;;19.30;48.20;;;;;;6173059;28;20081;-72
2022/02/05 11:30:29;;;;;;;0.50;0.30;;;19.30;48.10;;;;;;6169506;28;20077;-71
2022/02/05 11:33:30;;;;;;;1.10;0.50;;;19.30;48.20;;;;;;6170710;28;20080;-73
2022/02/05 11:36:41;;;;;;;0.98;0.50;;;19.30;48.20;;;;;;6172735;28;20097;-71
2022/02/05 11:39:47;;;;;;;0.75;0.45;;;19.30;48.20;;;;;;6173185;28;20026;-72
2022/02/05 11:42:47;;;;;;;1.25;0.70;;;19.30;48.30;;;;;;6153716;28;20097;-72
2022/02/05 11:46:13;;;;;;;1.42;0.68;;;19.30;48.40;;;;;;6149261;28;20408;-73
2022/02/05 11:49:15;;;;;;;;;;;19.30;48.50;;;;;;6173300;28;20023;-71
2022/02/05 11:52:42;;;;;;;2.78;0.88;;;19.30;48.50;;;;;;6171929;28;19913;-71
2022/02/05 11:55:43;;;;;;;2.35;1.13;;;19.20;48.40;;;;;;6172384;28;20054;-72
2022/02/05 11:58:59;;;;;;;2.45;0.90;;;19.20;48.50;;;;;;6172017;28;20038;-72
2022/02/05 12:02:14;;;;;;;1.70;0.75;;;19.30;48.60;;;;;;6171967;28;20097;-70
2022/02/05 12:05:23;;;;;;;1.50;0.67;;;19.20;48.50;;;;;;6172075;28;20030;-71
2022/02/05 12:08:26;;;;;;;4.43;1.23;;;19.30;48.60;;;;;;6162783;28;20101;-72
2022/02/05 12:11:34;;;;;;;2.65;1.23;;;19.30;48.60;;;;;;6171111;28;20089;-73
2022/02/05 12:14:35;;;;;;;5.95;1.20;;;19.30;48.60;;;;;;6171743;28;20098;-71
2022/02/05 12:17:58;;;;;;;1.83;0.80;;;19.30;48.60;;;;;;6172534;28;20453;-71
2022/02/05 12:24:33;;;;;;;1.70;0.85;;;19.30;48.60;;;;;;6164773;28;20066;-72
2022/02/05 12:27:36;;;;;;;2.30;0.85;;;19.30;48.60;;;;;;6147623;28;20571;-72
2022/02/05 12:30:40;;;;;;;2.42;1.10;;;19.30;48.60;;;;;;6148022;28;20042;-72
2022/02/05 12:33:49;;;;;;;3.15;1.15;;;19.30;48.50;;;;;;6170319;28;20027;-71
2022/02/05 12:36:54;;;;;;;6.40;1.50;;;19.20;48.40;;;;;;6172306;28;20026;-72
2022/02/05 12:39:57;;;;;;;5.95;1.70;;;19.20;48.40;;;;;;6171429;28;20498;-72
2022/02/05 12:42:58;;;;;;;9.88;2.03;;;19.10;47.90;;;;;;6150990;28;20047;-72
2022/02/05 12:46:09;;;;;;;10.27;2.42;;;19.00;45.50;;;;;;6149865;28;20041;-72
2022/02/05 12:49:18;;;;;;;27.05;3.05;;;19.10;45.60;;;;;;6170295;28;20260;-72
2022/02/05 12:52:29;;;;;;;21.13;2.92;;;19.10;44.70;;;;;;6170459;28;20031;-71
2022/02/05 12:55:34;;;;;;;14.93;2.88;;;19.20;45.40;;;;;;6170183;28;20046;-71
2022/02/05 12:59:01;;;;;;;23.48;3.13;;;19.20;45.20;;;;;;6170981;28;20031;-71
2022/02/05 13:02:08;;;;;;;28.20;3.17;;;19.20;45.30;;;;;;6170857;28;20394;-71
2022/02/05 13:05:08;;;;;;;14.27;2.70;;;19.20;45.90;;;;;;6171607;28;20058;-72
2022/02/05 13:08:09;;;;;;;12.57;2.72;;;19.20;46.30;;;;;;6171040;28;20037;-72
2022/02/05 13:11:09;;;;;;;12.32;2.75;;;19.10;46.70;;;;;;6170684;28;20027;-71
2022/02/05 13:14:10;;;;;;;11.98;2.67;;;19.10;45.00;;;;;;6170270;28;20421;-72
2022/02/05 13:18:22;;;;;;;16.90;2.83;;;19.10;43.60;;;;;;6161567;28;20565;-70
2022/02/05 13:27:28;;;;;;;16.10;2.78;;;19.20;44.30;;;;;;6145779;28;20039;-72
2022/02/05 13:33:59;;;;;;;7.80;2.35;;;19.20;44.80;;;;;;6168480;28;20035;-72
2022/02/05 13:37:26;;;;;;;10.32;2.72;;;19.20;45.20;;;;;;6169076;28;20044;-72
2022/02/05 13:40:29;;;;;;;7.13;2.20;;;19.20;44.70;;;;;;6169900;28;20057;-73
2022/02/05 13:43:41;;;;;;;6.90;2.08;;;19.20;44.90;;;;;;6145025;28;20134;-73
2022/02/05 13:46:42;;;;;;;6.03;1.98;;;19.20;45.30;;;;;;6154136;28;20031;-72
2022/02/05 13:49:56;;;;;;;9.02;2.20;;;19.20;45.30;;;;;;6169459;28;20053;-72
2022/02/05 13:53:03;;;;;;;7.38;1.77;;;19.20;45.60;;;;;;6169127;28;20034;-73
2022/02/05 13:56:04;;;;;;;6.13;2.20;;;19.20;45.50;;;;;;6168228;28;20053;-73
2022/02/05 13:59:18;;;;;;;6.50;1.95;;;19.20;45.80;;;;;;6168856;28;20483;-72
2022/02/05 14:02:21;;;;;;;8.15;2.28;;;19.20;45.70;;;;;;6168665;28;20413;-73
2022/02/05 14:05:21;;;;;;;9.02;1.77;;;19.20;45.80;;;;;;6169531;28;20061;-73
2022/02/05 14:08:26;;;;;;;7.88;2.35;;;19.20;45.80;;;;;;6167986;28;20023;-72
2022/02/05 14:11:28;;;;;;;;;;;19.20;45.80;;;;;;6169005;28;20122;-70
2022/02/05 14:14:36;;;;;;;7.10;1.85;;;19.20;45.90;;;;;;6168425;28;19914;-72
2022/02/05 14:17:36;;;;;;;7.30;1.88;;;19.20;46.10;;;;;;6168695;28;20035;-74
2022/02/05 14:20:48;;;;;;;7.25;2.00;;;19.20;46.20;;;;;;6162571;28;20434;-73
2022/02/05 14:23:51;;;;;;;7.65;1.80;;;19.30;46.40;;;;;;6161615;28;20435;-71
2022/02/05 14:27:05;;;;;;;9.57;2.05;;;19.30;46.20;;;;;;6168888;28;20023;-74
2022/02/05 14:30:13;;;;;;;7.82;2.08;;;19.20;46.10;;;;;;6171996;28;20049;-73
2022/02/05 14:33:15;;;;;;;4.70;1.63;;;19.30;46.20;;;;;;6167727;28;20051;-74
2022/02/05 14:43:03;;;;;;;5.00;1.73;;;19.20;46.30;;;;;;6167980;28;20652;-74
2022/02/05 14:46:03;;;;;;;7.20;2.00;;;19.20;46.30;;;;;;6170603;28;20037;-74
2022/02/05 14:49:04;;;;;;;4.60;1.60;;;19.20;46.30;;;;;;6171514;28;20457;-74
2022/02/05 14:52:08;;;;;;;5.38;1.60;;;19.20;46.30;;;;;;6168328;28;20438;-73
2022/02/05 14:55:09;;;;;;;4.28;1.45;;;19.20;46.00;;;;;;6168549;28;20537;-72
2022/02/05 14:58:09;;;;;;;4.90;1.33;;;19.20;46.20;;;;;;6168216;28;20031;-70
2022/02/05 15:01:10;;;;;;;2.75;1.25;;;19.30;46.30;;;;;;6167923;28;20482;-73
2022/02/05 15:04:10;;;;;;;6.18;1.85;;;19.20;46.10;;;;;;6166920;28;20038;-73
2022/02/05 15:07:14;;;;;;;2.95;1.48;;;19.20;46.20;;;;;;6167829;28;20030;-73
2022/02/05 15:10:17;;;;;;;6.68;1.50;;;19.20;46.50;;;;;;6167217;28;20022;-73
2022/02/05 15:13:18;;;;;;;4.22;1.48;;;19.20;46.60;;;;;;6165975;28;20034;-73
2022/02/05 15:16:20;;;;;;;4.85;1.50;;;19.30;46.70;;;;;;6167109;28;20097;-74
2022/02/05 15:19:21;;;;;;;2.35;1.00;;;19.20;46.70;;;;;;6166075;28;20030;-74
2022/02/05 15:22:22;;;;;;;3.55;1.35;;;19.20;46.40;;;;;;6166132;28;20042;-73
2022/02/05 15:25:25;;;;;;;3.38;1.30;;;19.20;46.50;;;;;;6181641;28;20031;-73
2022/02/05 15:28:25;;;;;;;4.93;1.20;;;19.30;46.60;;;;;;6166881;28;20051;-73
2022/02/05 15:31:26;;;;;;;6.05;1.85;;;19.20;46.30;;;;;;6172432;28;20535;-73
2022/02/05 15:34:26;;;;;;;3.42;1.33;;;19.30;46.60;;;;;;6147561;28;20782;-74
2022/02/05 15:37:27;;;;;;;3.50;1.40;;;19.30;46.60;;;;;;6143409;28;20067;-73
2022/02/05 15:43:29;;;;;;;4.95;1.23;;;19.30;46.50;;;;;;6143285;28;20501;-73
2022/02/05 15:43:53;;;;;;;2.97;1.35;;;19.20;46.50;;;;;;6142882;29;20506;-73
2022/02/05 15:46:53;;;;;;;;;;;19.30;46.60;;;;;;6152963;28;20130;-73
2022/02/05 15:49:54;;;;;;;3.15;1.40;;;19.20;46.40;;;;;;6166921;28;19906;-73
2022/02/05 15:52:55;;;;;;;4.20;1.48;;;19.30;46.80;;;;;;6170355;28;20019;-72
2022/02/05 15:55:56;;;;;;;4.53;1.30;;;19.30;46.70;;;;;;6170545;28;20135;-73
2022/02/05 15:58:58;;;;;;;4.30;1.50;;;19.30;46.80;;;;;;6170814;28;20574;-71
2022/02/05 16:01:59;;;;;;;4.32;1.40;;;19.20;46.80;;;;;;6170412;28;20441;-74
2022/02/05 16:04:59;;;;;;;2.28;0.95;;;19.30;46.90;;;;;;6170699;28;20050;-73
2022/02/05 16:08:00;;;;;;;2.78;1.25;;;19.30;46.90;;;;;;6173120;28;20429;-74
2022/02/05 16:11:00;;;;;;;2.95;1.35;;;19.30;46.90;;;;;;6170570;28;20077;-74
2022/02/05 16:14:01;;;;;;;3.25;1.02;;;19.20;46.90;;;;;;6170424;28;20494;-72
2022/02/05 16:17:02;;;;;;;2.10;0.85;;;19.20;46.90;;;;;;6170493;28;20039;-72
2022/02/05 16:20:04;;;;;;;2.25;1.30;;;19.30;47.00;;;;;;6170716;28;20657;-73
2022/02/05 16:23:05;;;;;;;2.83;1.02;;;19.30;47.00;;;;;;6155156;28;20031;-73
2022/02/05 16:26:06;;;;;;;2.90;1.05;;;19.30;47.00;;;;;;6146655;28;20455;-73
2022/02/05 16:29:06;;;;;;;4.95;1.67;;;19.20;46.80;;;;;;6145428;28;20034;-73
2022/02/05 16:32:09;;;;;;;4.70;1.58;;;19.20;46.10;;;;;;6156084;28;20071;-72
2022/02/05 16:35:12;;;;;;;7.57;1.70;;;19.20;45.10;;;;;;6169881;28;20026;-71
2022/02/05 16:38:18;;;;;;;5.90;1.80;;;19.20;43.10;;;;;;6169626;28;20033;-74
2022/02/05 16:41:19;;;;;;;7.88;2.00;;;19.20;43.00;;;;;;6162705;28;20375;-73
2022/02/05 16:44:20;;;;;;;8.73;1.90;;;19.20;42.30;;;;;;6147749;28;20046;-73
2022/02/05 16:47:21;;;;;;;7.32;1.80;;;19.20;42.70;;;;;;6161746;28;20022;-73
2022/02/05 16:50:25;;;;;;;7.93;1.63;;;19.20;43.60;;;;;;6180552;28;20030;-73
2022/02/05 16:53:25;;;;;;;8.35;1.60;;;19.20;43.30;;;;;;6193340;28;20108;-74
2022/02/05 16:56:29;;;;;;;6.28;1.85;;;19.30;43.80;;;;;;6180721;28;20481;-73
2022/02/05 16:59:29;;;;;;;7.60;1.75;;;19.30;44.10;;;;;;6167807;28;20027;-73
2022/02/05 17:02:30;;;;;;;6.68;2.05;;;19.20;44.10;;;;;;6167763;28;20038;-73
2022/02/05 17:05:34;;;;;;;7.50;1.80;;;19.20;44.40;;;;;;6168205;28;20446;-72
2022/02/05 17:08:36;;;;;;;6.32;1.63;;;19.20;44.50;;;;;;6165622;28;20034;-74
2022/02/05 17:11:36;;;;;;;5.38;1.73;;;19.20;44.70;;;;;;6168113;28;20349;-73
2022/02/05 17:14:39;;;;;;;5.25;1.42;;;19.20;44.80;;;;;;6167112;28;20501;-73
2022/02/05 17:17:40;;;;;;;9.30;1.58;;;19.20;44.80;;;;;;6167675;28;20026;-71
2022/02/05 17:20:53;;;;;;;7.47;2.15;;;19.20;45.00;;;;;;6168266;28;20430;-74
2022/02/05 17:23:54;;;;;;;6.13;1.60;;;19.20;45.10;;;;;;6168307;28;20058;-74
2022/02/05 17:26:55;;;;;;;3.80;1.08;;;19.20;44.80;;;;;;6170456;28;20428;-74
2022/02/05 17:29:56;;;;;;;5.78;1.55;;;19.20;45.20;;;;;;6168327;28;20293;-71
2022/02/05 17:32:56;;;;;;;3.53;1.45;;;19.20;45.00;;;;;;6160070;28;20126;-73
2022/02/05 17:36:05;;;;;;;5.00;1.60;;;19.20;45.00;;;;;;6169728;28;20042;-72
2022/02/05 17:39:06;;;;;;;2.72;1.42;;;19.20;45.00;;;;;;6170316;28;20433;-73
2022/02/05 17:42:07;;;;;;;3.63;1.63;;;19.20;45.20;;;;;;6157149;28;20097;-73
2022/02/05 17:45:08;;;;;;;3.90;1.40;;;19.20;45.50;;;;;;6146795;29;20609;-73
2022/02/05 17:48:09;;;;;;;4.43;1.60;;;19.20;45.60;;;;;;6146367;28;20034;-73
2022/02/05 17:51:09;;;;;;;6.00;1.40;;;19.20;45.30;;;;;;6147127;29;20026;-74
2022/02/05 17:54:10;;;;;;;5.05;1.38;;;19.20;45.30;;;;;;6146579;29;20518;-74
2022/02/05 17:57:11;;;;;;;3.83;1.00;;;19.20;45.40;;;;;;6146521;29;20039;-73
2022/02/05 18:00:14;;;;;;;3.42;1.35;;;19.20;45.30;;;;;;6147027;28;20031;-73
2022/02/05 18:03:16;;;;;;;5.03;1.80;;;19.20;45.20;;;;;;6159612;28;20035;-73
2022/02/05 18:06:23;;;;;;;4.28;1.50;;;19.20;45.30;;;;;;6170277;28;20058;-74
2022/02/05 18:12:39;;;;;;;4.30;1.40;;;19.20;45.10;;;;;;6170606;28;20519;-73
2022/02/05 18:15:40;;;;;;;2.47;0.95;;;19.20;45.20;;;;;;6168826;28;20053;-72
2022/02/05 18:18:40;;;;;;;2.95;1.20;;;19.20;45.30;;;;;;6169747;28;20054;-73
2022/02/05 18:21:41;;;;;;;4.28;1.30;;;19.20;45.60;;;;;;6169765;28;20158;-74
2022/02/05 18:24:42;;;;;;;2.85;1.10;;;19.20;45.40;;;;;;6169659;28;20039;-72
2022/02/05 18:27:44;;;;;;;4.78;1.13;;;19.20;45.40;;;;;;6170116;28;20030;-73
2022/02/05 18:30:46;;;;;;;3.25;1.38;;;19.20;45.50;;;;;;6170105;28;20379;-73
2022/02/05 18:33:46;;;;;;;2.30;1.02;;;19.20;45.60;;;;;;6170160;28;20069;-73
2022/02/05 18:36:47;;;;;;;2.88;1.40;;;19.20;45.70;;;;;;6170043;28;20401;-73